createdAt,value
2022-07-29T00:02:16.132Z,100393.16
2022-07-29T00:04:42.762Z,100394.13
2022-07-29T00:07:09.556Z,100399.59
2022-07-29T00:09:50.394Z,100400.44
2022-07-29T00:12:25.602Z,100406.94
2022-07-29T00:14:57.229Z,100410.19
2022-07-29T00:17:25.146Z,100406.09
2022-07-29T00:19:52.139Z,100401.94
2022-07-29T00:22:19.757Z,100416.28
2022-07-29T00:24:48.682Z,100421.34
2022-07-29T00:27:15.262Z,100436.16
2022-07-29T00:29:41.786Z,100445.53
2022-07-29T00:32:08.324Z,100445.31
2022-07-29T00:34:53.615Z,100441.50
2022-07-29T00:37:20.189Z,100443.72
2022-07-29T00:39:46.770Z,100445.06
2022-07-29T00:42:13.365Z,100441.94
2022-07-29T00:44:41.243Z,100443.88
2022-07-29T00:47:09.177Z,100447.75
2022-07-29T00:49:36.088Z,100441.59
2022-07-29T00:52:04.943Z,100437.38
2022-07-29T00:54:31.699Z,100433.44
2022-07-29T00:56:59.871Z,100433.28
2022-07-29T00:59:35.080Z,100436.66
2022-07-29T01:02:03.867Z,100431.84
2022-07-29T01:04:31.896Z,100436.28
2022-07-29T01:06:59.594Z,100428.28
2022-07-29T01:09:42.753Z,100429.44
2022-07-29T01:12:23.972Z,100419.72
2022-07-29T01:14:51.618Z,100418.25
2022-07-29T01:17:29.613Z,100416.22
2022-07-29T01:20:13.626Z,100414.13
2022-07-29T01:23:01.444Z,100412.94
2022-07-29T01:25:55.790Z,100407.09
2022-07-29T01:28:41.271Z,100403.69
2022-07-29T01:31:12.430Z,100401.25
2022-07-29T01:33:56.082Z,100396.00
2022-07-29T01:36:33.264Z,100392.63
2022-07-29T01:39:12.869Z,100390.88
2022-07-29T01:41:50.542Z,100385.59
2022-07-29T01:44:27.724Z,100383.38
2022-07-29T01:46:58.963Z,100387.69
2022-07-29T01:49:32.505Z,100385.59
2022-07-29T01:52:06.859Z,100377.78
2022-07-29T01:54:39.462Z,100383.75
2022-07-29T01:57:09.148Z,100378.84
2022-07-29T01:59:37.131Z,100387.72
2022-07-29T02:02:07.223Z,100388.75
2022-07-29T02:04:36.752Z,100382.09
2022-07-29T02:07:06.116Z,100384.41
2022-07-29T02:09:35.640Z,100389.09
2022-07-29T02:12:04.102Z,100383.88
2022-07-29T02:14:34.990Z,100379.34
2022-07-29T02:17:03.770Z,100381.78
2022-07-29T02:19:33.190Z,100388.44
2022-07-29T02:22:02.077Z,100378.59
2022-07-29T02:24:30.678Z,100381.38
2022-07-29T02:27:00.118Z,100375.28
2022-07-29T02:29:29.366Z,100377.56
2022-07-29T02:32:00.543Z,100379.97
2022-07-29T02:34:27.988Z,100371.59
2022-07-29T02:36:56.295Z,100371.59
2022-07-29T02:39:24.293Z,100376.31
2022-07-29T02:42:00.821Z,100370.78
2022-07-29T02:44:32.637Z,100372.19
2022-07-29T02:47:20.000Z,100373.09
2022-07-29T02:49:55.255Z,100364.38
2022-07-29T02:52:43.108Z,100364.03
2022-07-29T02:55:21.610Z,100359.88
2022-07-29T02:57:54.431Z,100359.97
2022-07-29T03:00:24.679Z,100356.81
2022-07-29T03:02:54.584Z,100359.69
2022-07-29T03:05:23.336Z,100363.03
2022-07-29T03:07:57.319Z,100357.34
2022-07-29T03:10:26.014Z,100357.44
2022-07-29T03:12:53.055Z,100357.78
2022-07-29T03:15:20.071Z,100367.19
2022-07-29T03:17:47.255Z,100371.31
2022-07-29T03:20:14.267Z,100367.91
2022-07-29T03:22:47.933Z,100368.75
2022-07-29T03:25:16.583Z,100371.47
2022-07-29T03:27:44.216Z,100366.06
2022-07-29T03:30:12.407Z,100367.63
2022-07-29T03:32:45.018Z,100360.00
2022-07-29T03:35:11.707Z,100364.50
2022-07-29T03:37:38.433Z,100364.66
2022-07-29T03:40:09.570Z,100365.38
2022-07-29T03:42:38.626Z,100364.78
2022-07-29T03:45:08.787Z,100369.69
2022-07-29T03:47:51.025Z,100365.47
2022-07-29T03:50:21.078Z,100362.78
2022-07-29T03:52:48.939Z,100357.22
2022-07-29T03:55:16.409Z,100357.94
2022-07-29T03:57:45.310Z,100354.81
2022-07-29T04:00:12.783Z,100350.38
2022-07-29T04:02:40.237Z,100357.13
2022-07-29T04:05:12.995Z,100351.44
2022-07-29T04:07:39.635Z,100345.06
2022-07-29T04:10:06.886Z,100358.09
2022-07-29T04:12:33.489Z,100354.59
2022-07-29T04:15:00.098Z,100364.25
2022-07-29T04:17:26.600Z,100358.97
2022-07-29T04:19:53.143Z,100362.25
2022-07-29T04:22:19.646Z,100359.97
2022-07-29T04:24:46.203Z,100359.69
2022-07-29T04:27:12.814Z,100364.31
2022-07-29T04:29:56.013Z,100360.06
2022-07-29T04:32:25.107Z,100356.66
2022-07-29T04:34:52.195Z,100356.28
2022-07-29T04:37:18.748Z,100360.00
2022-07-29T04:39:45.270Z,100358.53
2022-07-29T04:42:11.930Z,100353.81
2022-07-29T04:44:39.901Z,100353.50
2022-07-29T04:47:10.091Z,100342.06
2022-07-29T04:49:39.335Z,100347.78
2022-07-29T04:52:06.999Z,100337.78
2022-07-29T04:54:33.991Z,100343.63
2022-07-29T04:57:00.508Z,100343.34
2022-07-29T04:59:27.588Z,100350.25
2022-07-29T05:01:54.148Z,100348.63
2022-07-29T05:04:21.042Z,100349.91
2022-07-29T05:06:47.783Z,100353.09
2022-07-29T05:09:14.345Z,100346.97
2022-07-29T05:11:44.014Z,100360.59
2022-07-29T05:14:10.712Z,100356.41
2022-07-29T05:16:37.309Z,100356.19
2022-07-29T05:19:03.888Z,100356.56
2022-07-29T05:21:30.461Z,100370.31
2022-07-29T05:23:57.049Z,100363.44
2022-07-29T05:26:23.596Z,100361.91
2022-07-29T05:29:08.678Z,100369.38
2022-07-29T05:31:55.174Z,100375.56
2022-07-29T05:34:21.796Z,100373.13
2022-07-29T05:36:48.334Z,100371.97
2022-07-29T05:39:14.973Z,100378.09
2022-07-29T05:41:41.555Z,100372.25
2022-07-29T05:44:08.448Z,100379.38
2022-07-29T05:46:35.100Z,100381.72
2022-07-29T05:49:02.119Z,100384.31
2022-07-29T05:51:28.664Z,100386.97
2022-07-29T05:53:55.255Z,100381.50
2022-07-29T05:56:21.767Z,100374.91
2022-07-29T05:58:48.403Z,100378.84
2022-07-29T06:01:15.092Z,100384.13
2022-07-29T06:03:42.403Z,100382.91
2022-07-29T06:06:09.071Z,100383.56
2022-07-29T06:08:37.176Z,100388.81
2022-07-29T06:11:05.122Z,100393.63
2022-07-29T06:13:32.311Z,100387.72
2022-07-29T06:15:59.148Z,100392.09
2022-07-29T06:18:26.056Z,100383.53
2022-07-29T06:20:53.071Z,100380.84
2022-07-29T06:23:21.361Z,100386.69
2022-07-29T06:25:48.214Z,100399.94
2022-07-29T06:28:14.882Z,100394.22
2022-07-29T06:30:41.608Z,100394.38
2022-07-29T06:33:08.168Z,100393.06
2022-07-29T06:35:38.797Z,100398.16
2022-07-29T06:38:31.816Z,100391.81
2022-07-29T06:41:01.741Z,100388.38
2022-07-29T06:43:34.744Z,100389.22
2022-07-29T06:46:04.111Z,100393.03
2022-07-29T06:48:31.342Z,100393.91
2022-07-29T06:50:58.398Z,100394.91
2022-07-29T06:53:25.000Z,100386.44
2022-07-29T06:55:51.656Z,100394.69
2022-07-29T06:58:21.140Z,100395.41
2022-07-29T07:00:48.778Z,100403.28
2022-07-29T07:03:16.520Z,100403.47
2022-07-29T07:05:43.671Z,100399.41
2022-07-29T07:08:10.232Z,100406.78
2022-07-29T07:10:37.070Z,100414.34
2022-07-29T07:13:05.211Z,100408.78
2022-07-29T07:15:39.018Z,100414.94
2022-07-29T07:18:06.933Z,100419.78
2022-07-29T07:20:34.907Z,100422.25
2022-07-29T07:23:01.840Z,100420.13
2022-07-29T07:25:28.559Z,100418.84
2022-07-29T07:27:55.524Z,100416.53
2022-07-29T07:30:22.451Z,100416.97
2022-07-29T07:32:49.182Z,100420.41
2022-07-29T07:35:16.002Z,100418.03
2022-07-29T07:37:42.759Z,100408.44
2022-07-29T07:40:12.594Z,100421.75
2022-07-29T07:42:45.567Z,100421.19
2022-07-29T07:45:14.106Z,100418.59
2022-07-29T07:47:43.429Z,100421.91
2022-07-29T07:50:17.977Z,100413.41
2022-07-29T07:52:58.435Z,100424.22
2022-07-29T07:55:25.976Z,100422.59
2022-07-29T07:57:52.749Z,100425.31
2022-07-29T08:00:19.460Z,100420.75
2022-07-29T08:02:49.614Z,100426.44
2022-07-29T08:05:19.762Z,100413.66
2022-07-29T08:07:47.758Z,100419.25
2022-07-29T08:10:16.067Z,100417.75
2022-07-29T08:12:44.418Z,100415.44
2022-07-29T08:15:11.045Z,100411.25
2022-07-29T08:17:37.735Z,100413.13
2022-07-29T08:20:04.885Z,100406.00
2022-07-29T08:22:31.462Z,100405.44
2022-07-29T08:24:58.074Z,100413.91
2022-07-29T08:27:42.851Z,100412.41
2022-07-29T08:30:11.011Z,100417.28
2022-07-29T08:32:53.169Z,100416.91
2022-07-29T08:35:22.205Z,100423.09
2022-07-29T08:37:49.032Z,100423.38
2022-07-29T08:40:15.802Z,100409.88
2022-07-29T08:42:42.651Z,100424.72
2022-07-29T08:45:10.296Z,100419.13
2022-07-29T08:47:40.419Z,100418.16
2022-07-29T08:50:08.810Z,100416.69
2022-07-29T08:52:38.184Z,100420.38
2022-07-29T08:55:07.088Z,100413.75
2022-07-29T08:57:34.336Z,100417.75
2022-07-29T09:00:08.168Z,100419.63
2022-07-29T09:02:46.810Z,100419.44
2022-07-29T09:05:14.837Z,100419.63
2022-07-29T09:07:44.124Z,100421.75
2022-07-29T09:10:11.115Z,100425.53
2022-07-29T09:12:38.343Z,100429.84
2022-07-29T09:15:05.831Z,100424.06
2022-07-29T09:17:50.298Z,100415.91
2022-07-29T09:20:20.127Z,100418.78
2022-07-29T09:22:50.466Z,100419.50
2022-07-29T09:25:52.645Z,100414.25
2022-07-29T09:28:19.488Z,100413.56
2022-07-29T09:30:59.080Z,100412.78
2022-07-29T09:33:35.348Z,100403.94
2022-07-29T09:36:06.925Z,100406.69
2022-07-29T09:38:34.389Z,100403.38
2022-07-29T09:41:05.733Z,100412.97
2022-07-29T09:43:33.331Z,100403.84
2022-07-29T09:46:12.690Z,100400.72
2022-07-29T09:49:02.904Z,100403.28
2022-07-29T09:51:38.035Z,100402.66
2022-07-29T09:54:25.100Z,100396.53
2022-07-29T09:56:51.735Z,100397.41
2022-07-29T09:59:18.732Z,100403.59
2022-07-29T10:01:45.462Z,100392.56
2022-07-29T10:04:12.198Z,100391.47
2022-07-29T10:07:04.736Z,100385.50
2022-07-29T10:09:33.348Z,100380.31
2022-07-29T10:12:16.570Z,100392.44
2022-07-29T10:14:43.689Z,100387.13
2022-07-29T10:17:11.469Z,100385.50
2022-07-29T10:19:39.343Z,100394.00
2022-07-29T10:22:09.384Z,100389.41
2022-07-29T10:24:38.269Z,100384.41
2022-07-29T10:27:06.845Z,100388.88
2022-07-29T10:29:33.944Z,100383.88
2022-07-29T10:32:12.640Z,100382.41
2022-07-29T10:35:22.000Z,100382.41
2022-07-29T10:38:29.530Z,100385.72
2022-07-29T10:41:27.457Z,100376.81
2022-07-29T10:44:05.392Z,100374.16
2022-07-29T10:46:38.655Z,100371.91
2022-07-29T10:49:24.759Z,100368.69
2022-07-29T10:51:58.547Z,100366.81
2022-07-29T10:54:38.210Z,100370.56
2022-07-29T10:57:54.014Z,100372.41
2022-07-29T11:00:16.924Z,100368.53
2022-07-29T11:02:45.812Z,100359.78
2022-07-29T11:05:18.804Z,100369.50
2022-07-29T11:08:16.188Z,100363.81
2022-07-29T11:10:47.988Z,100361.50
2022-07-29T11:13:56.015Z,100361.41
2022-07-29T11:16:24.989Z,100357.50
2022-07-29T11:19:14.480Z,100357.41
2022-07-29T11:21:53.393Z,100358.63
2022-07-29T11:24:33.191Z,100345.41
2022-07-29T11:27:13.527Z,100355.75
2022-07-29T11:30:08.095Z,100351.88
2022-07-29T11:32:41.022Z,100346.88
2022-07-29T11:35:38.100Z,100340.63
2022-07-29T11:38:31.653Z,100345.41
2022-07-29T11:41:25.140Z,100343.19
2022-07-29T11:43:56.710Z,100343.78
2022-07-29T11:49:45.384Z,100343.09
2022-07-29T11:52:15.337Z,100353.28
2022-07-29T11:54:58.042Z,100341.09
2022-07-29T11:57:36.329Z,100342.09
2022-07-29T12:00:12.707Z,100333.50
2022-07-29T12:02:48.446Z,100335.25
2022-07-29T12:05:22.311Z,100323.19
2022-07-29T12:08:22.784Z,100318.66
2022-07-29T12:10:51.174Z,100327.19
2022-07-29T12:13:20.207Z,100311.09
2022-07-29T12:16:00.113Z,100316.59
2022-07-29T12:18:27.807Z,100313.91
2022-07-29T12:21:03.299Z,100315.97
2022-07-29T12:23:34.810Z,100319.84
2022-07-29T12:26:07.527Z,100310.81
2022-07-29T12:28:39.532Z,100305.59
2022-07-29T12:31:06.567Z,100305.78
2022-07-29T12:33:36.001Z,100306.47
2022-07-29T12:36:07.192Z,100304.16
2022-07-29T12:38:41.173Z,100298.38
2022-07-29T12:41:08.236Z,100290.56
2022-07-29T12:43:34.838Z,100296.16
2022-07-29T12:46:16.071Z,100281.72
2022-07-29T12:48:44.424Z,100284.84
2022-07-29T12:51:13.214Z,100288.28
2022-07-29T12:53:40.144Z,100291.00
2022-07-29T12:56:40.525Z,100280.69
2022-07-29T12:59:17.049Z,100275.06
2022-07-29T13:01:44.120Z,100274.13
2022-07-29T13:04:10.789Z,100277.38
2022-07-29T13:06:45.944Z,100265.59
2022-07-29T13:09:25.794Z,100273.53
2022-07-29T13:11:54.222Z,100261.34
2022-07-29T13:14:41.151Z,100253.84
2022-07-29T13:17:11.575Z,100252.56
2022-07-29T13:19:50.488Z,100258.66
2022-07-29T13:22:19.154Z,100265.38
2022-07-29T13:24:50.130Z,100273.19
2022-07-29T13:27:21.787Z,100274.78
2022-07-29T13:29:49.679Z,100273.75
2022-07-29T13:32:16.294Z,100272.69
2022-07-29T13:34:42.901Z,100263.19
2022-07-29T13:37:09.514Z,100257.66
2022-07-29T13:39:36.098Z,100250.72
2022-07-29T13:42:02.790Z,100250.16
2022-07-29T13:44:29.458Z,100247.84
2022-07-29T13:46:56.867Z,100245.78
2022-07-29T13:49:23.770Z,100242.72
2022-07-29T13:51:50.921Z,100236.69
2022-07-29T13:54:17.489Z,100237.81
2022-07-29T13:56:44.061Z,100234.50
2022-07-29T13:59:13.494Z,100245.06
2022-07-29T14:01:43.004Z,100247.34
2022-07-29T14:04:10.437Z,100252.59
2022-07-29T14:06:40.572Z,100254.34
2022-07-29T14:09:09.370Z,100253.75
2022-07-29T14:11:36.517Z,100253.56
2022-07-29T14:14:03.155Z,100247.63
2022-07-29T14:16:29.808Z,100241.94
2022-07-29T14:18:56.331Z,100241.81
2022-07-29T14:21:22.916Z,100243.09
2022-07-29T14:23:49.614Z,100246.91
2022-07-29T14:26:21.405Z,100245.31
2022-07-29T14:28:50.655Z,100255.47
2022-07-29T14:31:17.310Z,100250.38
2022-07-29T14:33:43.920Z,100261.81
2022-07-29T14:36:13.356Z,100259.41
2022-07-29T14:38:41.328Z,100260.41
2022-07-29T14:41:08.804Z,100262.13
2022-07-29T14:43:35.972Z,100272.63
2022-07-29T14:46:08.360Z,100272.63
2022-07-29T14:48:35.927Z,100280.75
2022-07-29T14:51:04.876Z,100290.69
2022-07-29T14:53:32.264Z,100305.91
2022-07-29T14:56:15.029Z,100299.25
2022-07-29T14:58:51.723Z,100304.44
2022-07-29T15:01:18.957Z,100313.78
2022-07-29T15:03:45.554Z,100312.50
2022-07-29T15:06:12.283Z,100311.44
2022-07-29T15:08:38.919Z,100300.09
2022-07-29T15:11:05.495Z,100300.94
2022-07-29T15:13:32.072Z,100299.78
2022-07-29T15:16:00.308Z,100302.50
2022-07-29T15:18:27.136Z,100307.19
2022-07-29T15:20:53.656Z,100306.28
2022-07-29T15:23:20.867Z,100305.78
2022-07-29T15:25:47.458Z,100299.06
2022-07-29T15:28:14.023Z,100301.66
2022-07-29T15:30:43.386Z,100300.09
2022-07-29T15:33:10.417Z,100295.28
2022-07-29T15:35:40.579Z,100292.38
2022-07-29T15:38:08.108Z,100297.56
2022-07-29T15:40:34.695Z,100299.16
2022-07-29T15:43:06.467Z,100298.53
2022-07-29T15:45:40.499Z,100309.28
2022-07-29T15:48:09.478Z,100316.59
2022-07-29T15:50:36.218Z,100311.50
2022-07-29T15:53:03.352Z,100314.78
2022-07-29T15:55:29.881Z,100318.16
2022-07-29T15:58:00.450Z,100318.56
2022-07-29T16:00:27.382Z,100315.84
2022-07-29T16:02:53.977Z,100317.53
2022-07-29T16:05:20.514Z,100321.16
2022-07-29T16:07:47.188Z,100340.19
2022-07-29T16:10:13.904Z,100336.59
2022-07-29T16:12:40.439Z,100326.81
2022-07-29T16:15:11.400Z,100357.44
2022-07-29T16:17:38.805Z,100348.31
2022-07-29T16:20:06.344Z,100347.72
2022-07-29T16:22:32.902Z,100346.84
2022-07-29T16:24:59.576Z,100353.00
2022-07-29T16:27:35.419Z,100351.56
2022-07-29T16:30:05.252Z,100345.94
2022-07-29T16:32:32.072Z,100350.22
2022-07-29T16:34:58.639Z,100341.91
2022-07-29T16:37:25.168Z,100338.44
2022-07-29T16:39:55.403Z,100343.84
2022-07-29T16:42:44.341Z,100356.03
2022-07-29T16:45:09.076Z,100354.44
2022-07-29T16:47:36.216Z,100358.31
2022-07-29T16:50:03.033Z,100362.19
2022-07-29T16:52:29.603Z,100360.41
2022-07-29T16:54:56.138Z,100367.69
2022-07-29T16:57:22.718Z,100367.69
2022-07-29T16:59:50.907Z,100374.31
2022-07-29T17:02:17.702Z,100378.84
2022-07-29T17:04:44.261Z,100380.69
2022-07-29T17:07:10.950Z,100382.47
2022-07-29T17:09:37.665Z,100377.66
2022-07-29T17:12:04.585Z,100384.13
2022-07-29T17:14:31.465Z,100380.63
2022-07-29T17:17:01.832Z,100382.38
2022-07-29T17:19:31.774Z,100394.91
2022-07-29T17:22:06.409Z,100389.03
2022-07-29T17:24:35.979Z,100393.94
2022-07-29T17:27:02.637Z,100386.53
2022-07-29T17:29:29.184Z,100389.56
2022-07-29T17:31:55.770Z,100386.88
2022-07-29T17:34:22.484Z,100383.94
2022-07-29T17:36:49.074Z,100383.03
2022-07-29T17:39:15.670Z,100396.78
2022-07-29T17:41:42.276Z,100398.66
2022-07-29T17:44:09.424Z,100397.91
2022-07-29T17:46:36.368Z,100405.22
2022-07-29T17:49:06.711Z,100408.19
2022-07-29T17:51:33.605Z,100410.56
2022-07-29T17:54:00.211Z,100416.00
2022-07-29T17:56:27.007Z,100424.44
2022-07-29T17:58:54.075Z,100423.84
2022-07-29T18:01:20.951Z,100432.75
2022-07-29T18:03:47.806Z,100445.88
2022-07-29T18:06:14.456Z,100447.44
2022-07-29T18:08:41.134Z,100471.03
2022-07-29T18:11:07.863Z,100484.31
2022-07-29T18:13:34.471Z,100484.88
2022-07-29T18:16:01.172Z,100473.53
2022-07-29T18:18:27.863Z,100456.00
2022-07-29T18:20:54.554Z,100438.09
2022-07-29T18:23:21.230Z,100443.78
2022-07-29T18:25:47.933Z,100441.28
2022-07-29T18:28:14.591Z,100455.22
2022-07-29T18:30:41.516Z,100452.75
2022-07-29T18:33:22.816Z,100451.25
2022-07-29T18:35:51.634Z,100457.84
2022-07-29T18:38:18.589Z,100455.50
2022-07-29T18:40:45.872Z,100464.56
2022-07-29T18:43:13.303Z,100473.44
2022-07-29T18:45:39.933Z,100472.00
2022-07-29T18:48:08.423Z,100465.09
2022-07-29T18:50:39.698Z,100471.63
2022-07-29T18:53:06.282Z,100473.34
2022-07-29T18:55:32.919Z,100475.88
2022-07-29T18:57:59.501Z,100485.06
2022-07-29T19:00:26.738Z,100480.59
2022-07-29T19:02:53.930Z,100483.94
2022-07-29T19:05:21.134Z,100477.25
2022-07-29T19:07:47.677Z,100482.53
2022-07-29T19:10:14.367Z,100482.63
2022-07-29T19:12:40.994Z,100493.84
2022-07-29T19:15:08.292Z,100488.16
2022-07-29T19:17:34.870Z,100492.63
2022-07-29T19:20:01.890Z,100485.31
2022-07-29T19:22:28.457Z,100487.63
2022-07-29T19:24:54.964Z,100494.78
2022-07-29T19:27:21.564Z,100498.34
2022-07-29T19:29:48.148Z,100509.31
2022-07-29T19:32:24.514Z,100503.00
2022-07-29T19:35:10.590Z,100508.00
2022-07-29T19:37:37.393Z,100509.59
2022-07-29T19:40:05.547Z,100516.00
2022-07-29T19:42:32.222Z,100522.56
2022-07-29T19:44:58.778Z,100528.06
2022-07-29T19:47:25.305Z,100536.66
2022-07-29T19:49:51.954Z,100549.66
2022-07-29T19:52:18.490Z,100551.56
2022-07-29T19:54:45.217Z,100547.22
2022-07-29T19:57:11.729Z,100542.19
2022-07-29T19:59:38.763Z,100552.78
2022-07-29T20:02:05.748Z,100550.13
2022-07-29T20:04:32.324Z,100557.03
2022-07-29T20:07:01.585Z,100560.47
2022-07-29T20:09:28.899Z,100563.28
2022-07-29T20:11:55.500Z,100558.56
2022-07-29T20:14:22.480Z,100557.19
2022-07-29T20:16:50.209Z,100551.97
2022-07-29T20:19:17.023Z,100547.91
2022-07-29T20:21:44.208Z,100559.69
2022-07-29T20:24:11.084Z,100569.63
2022-07-29T20:26:38.175Z,100579.16
2022-07-29T20:29:05.314Z,100584.59
2022-07-29T20:31:32.799Z,100590.50
2022-07-29T20:34:00.806Z,100589.00
2022-07-29T20:36:28.181Z,100580.38
2022-07-29T20:38:55.979Z,100590.88
2022-07-29T20:41:22.897Z,100587.28
2022-07-29T20:43:50.502Z,100583.63
2022-07-29T20:46:17.979Z,100585.03
2022-07-29T20:48:45.342Z,100581.44
2022-07-29T20:51:12.038Z,100592.56
2022-07-29T20:53:39.891Z,100593.53
2022-07-29T20:56:07.666Z,100589.81
2022-07-29T20:58:36.075Z,100593.41
2022-07-29T21:01:03.122Z,100595.25
2022-07-29T21:03:29.706Z,100605.72
2022-07-29T21:05:56.382Z,100605.31
2022-07-29T21:08:22.996Z,100616.69
2022-07-29T21:10:49.540Z,100607.69
2022-07-29T21:13:16.621Z,100613.69
2022-07-29T21:15:46.119Z,100606.69
2022-07-29T21:18:30.403Z,100601.69
2022-07-29T21:21:00.267Z,100591.69
2022-07-29T21:23:27.273Z,100572.09
2022-07-29T21:25:54.200Z,100570.53
2022-07-29T21:28:26.716Z,100576.94
2022-07-29T21:30:54.593Z,100585.69
2022-07-29T21:33:21.161Z,100590.38
2022-07-29T21:38:35.667Z,100583.63
2022-07-29T21:41:03.457Z,100580.16
2022-07-29T21:43:30.451Z,100592.53
2022-07-29T21:45:58.328Z,100594.53
2022-07-29T21:48:26.652Z,100592.28
2022-07-29T21:50:53.992Z,100590.63
2022-07-29T21:53:22.916Z,100593.09
2022-07-29T21:55:50.645Z,100596.28
2022-07-29T21:58:18.066Z,100589.53
2022-07-29T22:00:45.201Z,100579.94
2022-07-29T22:03:12.127Z,100579.88
2022-07-29T22:05:38.900Z,100572.91
2022-07-29T22:08:05.558Z,100573.06
2022-07-29T22:10:33.397Z,100573.31
2022-07-29T22:13:00.827Z,100570.59
2022-07-29T22:15:28.450Z,100568.63
2022-07-29T22:17:55.057Z,100577.91
2022-07-29T22:20:21.677Z,100583.13
2022-07-29T22:22:48.342Z,100587.84
2022-07-29T22:25:15.061Z,100591.28
2022-07-29T22:27:41.669Z,100584.78
2022-07-29T22:30:08.671Z,100598.63
2022-07-29T22:32:36.876Z,100593.78
2022-07-29T22:35:03.701Z,100588.97
2022-07-29T22:37:30.341Z,100583.47
2022-07-29T22:39:57.062Z,100583.84
2022-07-29T22:42:23.755Z,100576.59
2022-07-29T22:44:50.336Z,100588.09
2022-07-29T22:47:16.981Z,100582.66
2022-07-29T22:49:43.537Z,100583.84
2022-07-29T22:52:10.166Z,100583.63
2022-07-29T22:54:38.226Z,100591.31
2022-07-29T22:57:05.647Z,100593.59
2022-07-29T22:59:32.222Z,100597.47
2022-07-29T23:01:59.139Z,100606.03
2022-07-29T23:04:25.695Z,100598.72
2022-07-29T23:06:52.302Z,100604.47
2022-07-29T23:09:18.932Z,100602.13
2022-07-29T23:11:46.069Z,100599.31
2022-07-29T23:14:12.867Z,100595.31
2022-07-29T23:16:39.442Z,100598.78
2022-07-29T23:19:05.996Z,100606.47
2022-07-29T23:21:32.595Z,100611.16
2022-07-29T23:23:59.136Z,100613.75
2022-07-29T23:26:25.715Z,100614.03
2022-07-29T23:28:52.308Z,100621.81
2022-07-29T23:31:18.911Z,100614.66
2022-07-29T23:33:45.617Z,100613.47
2022-07-29T23:36:12.189Z,100615.72
2022-07-29T23:38:40.902Z,100611.09
2022-07-29T23:41:09.605Z,100604.44
2022-07-29T23:43:39.439Z,100603.59
2022-07-29T23:46:06.418Z,100601.28
2022-07-29T23:48:33.796Z,100591.66
2022-07-29T23:51:01.088Z,100598.94
2022-07-29T23:53:28.327Z,100608.47
2022-07-29T23:55:55.754Z,100614.25
2022-07-29T23:58:22.634Z,100601.69
